Time;durP1;ratioP1;P1;durP2;ratioP2;P2;SDS_P1;SDS_P2;PMS_P1;PMS_P2;Temp;Humidity;BMP_temperature;BMP_pressure;BME280_temperature;BME280_humidity;BME280_pressure;Samples;Min_cycle;Max_cycle;Signal;HPM_P1;HPM_P2
2022/05/08 00:02:03;;;;;;;;;;;;;;;18.04;100.00;99811.53;5062683;28;19997;-42
2022/05/08 00:04:28;;;;;;;;;;;;;;;18.48;100.00;99805.84;5063891;28;20069;-42
2022/05/08 00:06:53;;;;;;;;;;;;;;;18.65;100.00;99811.00;5066273;28;19920;-42
2022/05/08 00:09:19;;;;;;;;;;;;;;;19.50;100.00;99816.91;5066445;28;19979;-43
2022/05/08 00:11:44;;;;;;;;;;;;;;;18.84;100.00;99820.50;5059249;28;19926;-42
2022/05/08 00:14:09;;;;;;;;;;;;;;;18.70;100.00;99822.06;5062106;28;20343;-42
2022/05/08 00:16:34;;;;;;;;;;;;;;;19.48;100.00;99816.16;5059144;28;20384;-43
2022/05/08 00:19:00;;;;;;;;;;;;;;;19.65;100.00;99821.28;5060625;28;20361;-43
2022/05/08 00:21:25;;;;;;;;;;;;;;;19.99;100.00;99820.22;5059323;28;19994;-42
2022/05/08 00:23:50;;;;;;;;;;;;;;;19.12;100.00;99827.72;5058237;28;20013;-42
2022/05/08 00:26:18;;;;;;;;;;;;;;;18.72;100.00;99830.63;5062297;28;20642;-45
2022/05/08 00:28:43;;;;;;;;;;;;;;;18.44;100.00;99827.78;5061809;28;19936;-46
2022/05/08 00:31:09;;;;;;;;;;;;;;;18.69;100.00;99825.59;5062518;28;19925;-44
2022/05/08 00:33:34;;;;;;;;;;;;;;;19.20;100.00;99826.38;5062620;28;19920;-44
2022/05/08 00:35:59;;;;;;;;;;;;;;;18.92;100.00;99828.78;5063428;28;20214;-40
2022/05/08 00:38:24;;;;;;;;;;;;;;;17.32;100.00;99824.47;5063902;28;19942;-40
2022/05/08 00:40:50;;;;;;;;;;;;;;;18.46;100.00;99813.72;5062424;28;19973;-40
2022/05/08 00:43:25;;;;;;;;;;;;;;;18.79;100.00;99819.00;5062331;28;19921;-40
2022/05/08 00:45:50;;;;;;;;;;;;;;;18.85;100.00;99819.59;5062674;28;19924;-40
2022/05/08 00:48:15;;;;;;;;;;;;;;;18.51;100.00;99824.78;5063105;28;20912;-40
2022/05/08 00:50:40;;;;;;;;;;;;;;;18.26;100.00;99827.78;5065523;28;19920;-40
2022/05/08 00:53:06;;;;;;;;;;;;;;;18.56;100.00;99830.59;5063857;28;19916;-40
2022/05/08 00:55:31;;;;;;;;;;;;;;;18.96;100.00;99832.91;5060743;28;19921;-40
2022/05/08 00:57:56;;;;;;;;;;;;;;;18.99;100.00;99832.75;5062398;28;20291;-40
2022/05/08 01:00:22;;;;;;;;;;;;;;;19.22;100.00;99824.50;5062097;28;19994;-40
2022/05/08 01:02:47;;;;;;;;;;;;;;;19.01;100.00;99830.91;5060972;28;20024;-40
2022/05/08 01:05:12;;;;;;;;;;;;;;;18.14;100.00;99833.63;5063815;28;19935;-39
2022/05/08 01:07:37;;;;;;;;;;;;;;;18.73;100.00;99829.72;5065175;28;19912;-39
2022/05/08 01:10:03;;;;;;;;;;;;;;;19.13;100.00;99829.38;5063610;28;19920;-39
2022/05/08 01:12:29;;;;;;;;;;;;;;;18.80;100.00;99823.28;5063973;28;19945;-39
2022/05/08 01:15:12;;;;;;;;;;;;;;;18.24;100.00;99819.19;5061381;28;19924;-39
2022/05/08 01:17:38;;;;;;;;;;;;;;;18.55;100.00;99822.84;5065546;28;19978;-40
2022/05/08 01:20:03;;;;;;;;;;;;;;;18.71;100.00;99822.91;5062039;28;20007;-40
2022/05/08 01:22:28;;;;;;;;;;;;;;;18.38;100.00;99821.97;5062988;28;19955;-40
2022/05/08 01:24:54;;;;;;;;;;;;;;;18.46;100.00;99823.34;5062608;28;20735;-40
2022/05/08 01:27:19;;;;;;;;;;;;;;;17.74;100.00;99827.72;5061554;28;20262;-40
2022/05/08 01:29:44;;;;;;;;;;;;;;;17.75;100.00;99832.88;5062526;28;20357;-39
2022/05/08 01:32:10;;;;;;;;;;;;;;;16.83;100.00;99836.28;5061621;28;20385;-39
2022/05/08 01:34:35;;;;;;;;;;;;;;;17.44;100.00;99838.69;5063216;28;19927;-39
2022/05/08 01:37:00;;;;;;;;;;;;;;;16.49;100.00;99845.53;5063686;28;19974;-39
2022/05/08 01:39:25;;;;;;;;;;;;;;;16.45;100.00;99842.22;5060713;28;19920;-39
2022/05/08 01:41:50;;;;;;;;;;;;;;;16.69;100.00;99845.53;5063204;28;19916;-39
2022/05/08 01:44:16;;;;;;;;;;;;;;;17.07;100.00;99848.19;5064070;28;19924;-39
2022/05/08 01:46:41;;;;;;;;;;;;;;;17.11;100.00;99835.91;5062683;28;19919;-39
2022/05/08 01:49:06;;;;;;;;;;;;;;;16.53;100.00;99849.66;5060154;28;19921;-39
2022/05/08 01:51:31;;;;;;;;;;;;;;;15.83;100.00;99854.28;5063518;28;19925;-39
2022/05/08 01:53:57;;;;;;;;;;;;;;;16.40;100.00;99851.09;5061307;28;19954;-39
2022/05/08 01:56:22;;;;;;;;;;;;;;;16.40;100.00;99854.56;5062235;28;19924;-39
2022/05/08 01:58:50;;;;;;;;;;;;;;;15.59;100.00;99850.03;5060648;28;19924;-39
2022/05/08 02:01:15;;;;;;;;;;;;;;;15.24;100.00;99849.63;5061983;28;19939;-39
2022/05/08 02:03:41;;;;;;;;;;;;;;;15.64;100.00;99858.47;5062438;28;19931;-39
2022/05/08 02:06:06;;;;;;;;;;;;;;;16.82;100.00;99851.03;5063426;28;19916;-39
2022/05/08 02:08:31;;;;;;;;;;;;;;;16.48;100.00;99849.88;5064274;28;19920;-40
2022/05/08 02:10:56;;;;;;;;;;;;;;;17.58;100.00;99852.81;5061540;28;19928;-39
2022/05/08 02:13:22;;;;;;;;;;;;;;;16.65;100.00;99856.09;5063150;28;19977;-39
2022/05/08 02:15:47;;;;;;;;;;;;;;;17.17;100.00;99850.38;5063819;28;19916;-39
2022/05/08 02:18:12;;;;;;;;;;;;;;;16.07;100.00;99864.59;5063392;28;19950;-39
2022/05/08 02:20:39;;;;;;;;;;;;;;;15.72;100.00;99863.44;5062931;28;20008;-39
2022/05/08 02:23:04;;;;;;;;;;;;;;;17.23;100.00;99856.16;5060294;28;19985;-39
2022/05/08 02:25:32;;;;;;;;;;;;;;;17.23;100.00;99860.50;5062500;28;20374;-40
2022/05/08 02:27:58;;;;;;;;;;;;;;;15.94;100.00;99876.38;5064774;28;19920;-39
2022/05/08 02:30:23;;;;;;;;;;;;;;;16.91;100.00;99875.81;5065638;28;20447;-39
2022/05/08 02:32:52;;;;;;;;;;;;;;;16.64;100.00;99880.41;5061108;28;19928;-39
2022/05/08 02:35:20;;;;;;;;;;;;;;;16.27;100.00;99880.22;5060686;28;19920;-39
2022/05/08 02:37:48;;;;;;;;;;;;;;;17.12;100.00;99876.59;5061724;28;19927;-40
2022/05/08 02:40:13;;;;;;;;;;;;;;;16.02;100.00;99882.97;5060105;28;19932;-40
2022/05/08 02:42:38;;;;;;;;;;;;;;;16.72;100.00;99883.56;5061508;28;20769;-39
2022/05/08 02:45:04;;;;;;;;;;;;;;;17.38;100.00;99875.44;5062562;28;19981;-39
2022/05/08 02:47:31;;;;;;;;;;;;;;;17.00;100.00;99880.59;5061265;28;19916;-39
2022/05/08 02:49:56;;;;;;;;;;;;;;;17.13;100.00;99876.56;5062852;28;20832;-39
2022/05/08 02:52:21;;;;;;;;;;;;;;;17.14;100.00;99880.81;5061803;28;19928;-40
2022/05/08 02:54:47;;;;;;;;;;;;;;;16.83;100.00;99889.16;5059872;28;19916;-40
2022/05/08 03:00:00;;;;;;;;;;;;;;;17.10;100.00;99881.03;5061908;28;19927;-40
2022/05/08 03:02:26;;;;;;;;;;;;;;;17.17;100.00;99876.41;5063224;28;19920;-39
2022/05/08 03:04:51;;;;;;;;;;;;;;;16.15;100.00;99885.06;5059693;28;20672;-40
2022/05/08 03:07:16;;;;;;;;;;;;;;;16.85;100.00;99870.88;5060797;28;19970;-40
2022/05/08 03:09:41;;;;;;;;;;;;;;;16.54;100.00;99874.78;5061735;28;19952;-40
2022/05/08 03:12:08;;;;;;;;;;;;;;;17.07;100.00;99871.59;5062107;28;19927;-39
2022/05/08 03:14:33;;;;;;;;;;;;;;;16.30;100.00;99879.25;5062357;28;20356;-40
2022/05/08 03:16:58;;;;;;;;;;;;;;;16.70;100.00;99881.00;5058525;28;19917;-40
2022/05/08 03:19:25;;;;;;;;;;;;;;;16.80;100.00;99884.06;5061728;28;20292;-39
2022/05/08 03:21:51;;;;;;;;;;;;;;;16.86;100.00;99882.97;5061805;28;19985;-39
2022/05/08 03:24:16;;;;;;;;;;;;;;;17.27;100.00;99883.72;5059367;28;20667;-39
2022/05/08 03:26:41;;;;;;;;;;;;;;;17.68;100.00;99880.13;5060964;28;20052;-39
2022/05/08 03:29:07;;;;;;;;;;;;;;;17.14;100.00;99885.19;5064177;28;19920;-39
2022/05/08 03:31:33;;;;;;;;;;;;;;;17.02;100.00;99897.00;5059508;28;19951;-39
2022/05/08 03:33:58;;;;;;;;;;;;;;;16.61;100.00;99883.16;5062636;28;20629;-39
2022/05/08 03:36:23;;;;;;;;;;;;;;;17.04;100.00;99882.16;5059616;28;19919;-45
2022/05/08 03:38:49;;;;;;;;;;;;;;;16.31;100.00;99880.94;5060048;28;19921;-44
2022/05/08 03:41:15;;;;;;;;;;;;;;;14.89;100.00;99880.28;5059258;28;20727;-44
2022/05/08 03:43:41;;;;;;;;;;;;;;;15.57;100.00;99872.59;5062489;28;20578;-43
2022/05/08 03:46:06;;;;;;;;;;;;;;;15.54;100.00;99872.75;5060565;28;20065;-44
2022/05/08 03:48:31;;;;;;;;;;;;;;;15.49;100.00;99865.13;5062209;28;19920;-43
2022/05/08 03:50:56;;;;;;;;;;;;;;;15.93;100.00;99880.75;5060803;28;19928;-43
2022/05/08 03:53:22;;;;;;;;;;;;;;;14.70;100.00;99874.06;5062039;28;20431;-45
2022/05/08 03:55:47;;;;;;;;;;;;;;;16.13;100.00;99871.31;5062384;28;19946;-46
2022/05/08 03:58:12;;;;;;;;;;;;;;;16.30;100.00;99880.06;5066994;28;19938;-45
2022/05/08 04:00:37;;;;;;;;;;;;;;;15.66;100.00;99875.69;5064837;28;19952;-45
2022/05/08 04:03:03;;;;;;;;;;;;;;;14.96;100.00;99886.97;5064993;28;19999;-44
2022/05/08 04:05:29;;;;;;;;;;;;;;;16.39;100.00;99880.63;5061727;28;19925;-44
2022/05/08 04:07:54;;;;;;;;;;;;;;;16.18;100.00;99880.59;5062865;28;19923;-44
2022/05/08 04:10:19;;;;;;;;;;;;;;;16.72;100.00;99873.16;5063558;28;19924;-44
2022/05/08 04:12:45;;;;;;;;;;;;;;;16.65;100.00;99877.75;5061703;28;19920;-43
2022/05/08 04:16:15;;;;;;;;;;;;;;;15.42;100.00;99880.09;5065921;28;19920;-44
2022/05/08 04:17:55;;;;;;;;;;;;;;;16.22;100.00;99882.16;5060551;28;21024;-43
2022/05/08 04:20:20;;;;;;;;;;;;;;;16.70;100.00;99882.78;5063421;28;19924;-44
2022/05/08 04:25:30;;;;;;;;;;;;;;;16.16;100.00;99887.59;5064288;28;20026;-44
2022/05/08 04:27:55;;;;;;;;;;;;;;;16.59;100.00;99884.97;5064879;28;19920;-45
2022/05/08 04:30:20;;;;;;;;;;;;;;;16.16;100.00;99892.81;5063049;28;19920;-43
2022/05/08 04:32:45;;;;;;;;;;;;;;;16.36;100.00;99888.56;5062625;28;19988;-44
2022/05/08 04:35:11;;;;;;;;;;;;;;;15.78;100.00;99903.00;5064397;28;19920;-45
2022/05/08 04:37:36;;;;;;;;;;;;;;;15.92;100.00;99898.97;5059958;28;20369;-45
2022/05/08 04:40:01;;;;;;;;;;;;;;;15.91;100.00;99902.50;5066373;28;19978;-44
2022/05/08 04:42:26;;;;;;;;;;;;;;;15.70;100.00;99907.59;5062384;28;19920;-45
2022/05/08 04:44:51;;;;;;;;;;;;;;;16.45;100.00;99906.38;5063448;28;19978;-44
2022/05/08 04:47:17;;;;;;;;;;;;;;;15.85;100.00;99913.97;5046582;28;19931;-43
2022/05/08 04:49:42;;;;;;;;;;;;;;;16.26;100.00;99919.25;5060960;28;20313;-44
2022/05/08 04:52:07;;;;;;;;;;;;;;;15.55;100.00;99919.38;5062851;28;19920;-43
2022/05/08 04:54:32;;;;;;;;;;;;;;;16.22;100.00;99918.56;5065456;28;19965;-43
2022/05/08 04:56:58;;;;;;;;;;;;;;;16.05;100.00;99920.97;5061306;28;19967;-43
2022/05/08 04:59:23;;;;;;;;;;;;;;;16.10;100.00;99919.03;5060175;28;20039;-43
2022/05/08 05:01:49;;;;;;;;;;;;;;;16.35;100.00;99918.03;5063715;28;19973;-43
2022/05/08 05:04:14;;;;;;;;;;;;;;;16.18;100.00;99916.97;5065836;28;20294;-43
2022/05/08 05:06:42;;;;;;;;;;;;;;;15.63;100.00;99925.16;5064626;28;20246;-43
2022/05/08 05:09:07;;;;;;;;;;;;;;;15.96;100.00;99916.13;5063443;28;19962;-43
2022/05/08 05:11:32;;;;;;;;;;;;;;;15.74;100.00;99924.78;5060996;28;20286;-44
2022/05/08 05:13:57;;;;;;;;;;;;;;;15.69;100.00;99924.94;5061704;28;20039;-43
2022/05/08 05:16:22;;;;;;;;;;;;;;;16.39;100.00;99922.22;5064724;28;20065;-44
2022/05/08 05:18:48;;;;;;;;;;;;;;;16.22;100.00;99930.72;5064636;28;19927;-43
2022/05/08 05:21:13;;;;;;;;;;;;;;;16.05;100.00;99936.56;5064881;28;19975;-43
2022/05/08 05:23:38;;;;;;;;;;;;;;;16.08;100.00;99934.69;5062633;28;19994;-43
2022/05/08 05:26:03;;;;;;;;;;;;;;;14.88;100.00;99940.84;5064927;28;20016;-44
2022/05/08 05:28:29;;;;;;;;;;;;;;;15.16;100.00;99945.91;5065523;28;19927;-45
2022/05/08 05:30:55;;;;;;;;;;;;;;;15.33;100.00;99941.88;5061337;28;20000;-43
2022/05/08 05:33:20;;;;;;;;;;;;;;;16.08;100.00;99937.31;5058997;28;19963;-44
2022/05/08 05:35:45;;;;;;;;;;;;;;;15.18;100.00;99943.25;5063611;28;19963;-45
2022/05/08 05:38:10;;;;;;;;;;;;;;;16.17;100.00;99941.28;5064818;28;19994;-45
2022/05/08 05:40:35;;;;;;;;;;;;;;;15.73;100.00;99940.41;5062646;28;19923;-44
2022/05/08 05:43:01;;;;;;;;;;;;;;;15.83;100.00;99941.78;5060662;28;20769;-46
2022/05/08 05:45:26;;;;;;;;;;;;;;;16.45;100.00;99945.38;5060035;28;20022;-44
2022/05/08 05:47:54;;;;;;;;;;;;;;;15.48;100.00;99962.06;5058634;28;20019;-44
2022/05/08 05:50:20;;;;;;;;;;;;;;;15.42;100.00;99952.78;5062478;28;20431;-44
2022/05/08 05:52:45;;;;;;;;;;;;;;;15.22;100.00;99965.63;5063046;28;20004;-44
2022/05/08 05:55:10;;;;;;;;;;;;;;;15.73;100.00;99962.03;5060070;28;19942;-44
2022/05/08 05:57:36;;;;;;;;;;;;;;;16.18;100.00;99958.56;5060954;28;19955;-44
2022/05/08 06:00:05;;;;;;;;;;;;;;;16.30;100.00;99963.25;5060967;28;19959;-44
2022/05/08 06:02:31;;;;;;;;;;;;;;;15.66;100.00;99973.53;5058304;28;19916;-43
2022/05/08 06:04:56;;;;;;;;;;;;;;;16.09;100.00;99964.13;5064190;28;19924;-44
2022/05/08 06:07:21;;;;;;;;;;;;;;;15.18;100.00;99972.66;5062774;28;20033;-45
2022/05/08 06:09:47;;;;;;;;;;;;;;;16.07;100.00;99979.75;5062770;28;19952;-44
2022/05/08 06:12:12;;;;;;;;;;;;;;;15.87;100.00;99977.97;5062648;28;19921;-46
2022/05/08 06:14:37;;;;;;;;;;;;;;;15.55;100.00;99978.25;5063193;28;19920;-45
2022/05/08 06:17:03;;;;;;;;;;;;;;;16.09;100.00;99982.31;5064245;28;19926;-46
2022/05/08 06:19:31;;;;;;;;;;;;;;;15.98;100.00;99987.06;5061249;28;19963;-46
2022/05/08 06:21:56;;;;;;;;;;;;;;;15.99;100.00;99981.00;5060496;28;19924;-44
2022/05/08 06:24:21;;;;;;;;;;;;;;;16.30;100.00;99984.06;5060796;28;19931;-46
2022/05/08 06:26:46;;;;;;;;;;;;;;;15.16;100.00;99991.78;5061604;28;20014;-46
2022/05/08 06:29:12;;;;;;;;;;;;;;;15.01;100.00;99987.97;5065137;28;20011;-45
2022/05/08 06:31:37;;;;;;;;;;;;;;;16.03;100.00;99986.00;5062358;28;20743;-45
2022/05/08 06:34:02;;;;;;;;;;;;;;;15.69;100.00;99989.84;5060171;28;20453;-48
2022/05/08 06:36:28;;;;;;;;;;;;;;;16.35;100.00;99985.63;5060543;28;19966;-45
2022/05/08 06:38:53;;;;;;;;;;;;;;;16.66;100.00;99983.47;5061718;28;19927;-45
2022/05/08 06:41:19;;;;;;;;;;;;;;;15.87;100.00;99996.13;5059449;28;19973;-45
2022/05/08 06:43:44;;;;;;;;;;;;;;;13.83;100.00;100007.25;5063814;28;19923;-48
2022/05/08 06:46:10;;;;;;;;;;;;;;;14.66;100.00;99991.75;5058395;28;20822;-46
2022/05/08 06:48:35;;;;;;;;;;;;;;;16.09;100.00;99990.94;5059014;28;19927;-46
2022/05/08 06:51:01;;;;;;;;;;;;;;;16.19;100.00;99988.81;5059861;28;20057;-44
2022/05/08 06:53:26;;;;;;;;;;;;;;;17.10;100.00;99988.59;5064123;28;20388;-46
2022/05/08 06:55:52;;;;;;;;;;;;;;;17.30;100.00;99987.72;5062847;28;19930;-45
2022/05/08 06:58:18;;;;;;;;;;;;;;;18.17;100.00;99985.50;5062171;28;20246;-44
2022/05/08 07:03:27;;;;;;;;;;;;;;;16.41;100.00;99988.84;5060476;28;20415;-46
2022/05/08 07:05:54;;;;;;;;;;;;;;;18.06;100.00;99989.53;5058062;28;19924;-45
2022/05/08 07:08:19;;;;;;;;;;;;;;;18.33;100.00;99980.41;5061068;28;20421;-44
2022/05/08 07:10:44;;;;;;;;;;;;;;;16.78;100.00;99996.88;5062582;28;19934;-45
2022/05/08 07:13:09;;;;;;;;;;;;;;;18.14;100.00;99980.44;5061210;28;19920;-44
2022/05/08 07:15:36;;;;;;;;;;;;;;;17.40;100.00;100001.16;5062510;28;20769;-44
2022/05/08 07:18:01;;;;;;;;;;;;;;;17.33;100.00;99999.75;5063926;28;20254;-45
2022/05/08 07:20:26;;;;;;;;;;;;;;;17.69;100.00;99988.63;5066448;28;19978;-45
2022/05/08 07:22:51;;;;;;;;;;;;;;;18.45;100.00;99988.56;5062693;28;19921;-45
2022/05/08 07:25:16;;;;;;;;;;;;;;;18.22;100.00;99987.91;5065933;28;20576;-44
2022/05/08 07:27:42;;;;;;;;;;;;;;;18.91;100.00;99981.94;5066193;28;20471;-45
2022/05/08 07:30:08;;;;;;;;;;;;;;;18.29;100.00;99991.94;5066037;28;19923;-45
2022/05/08 07:32:33;;;;;;;;;;;;;;;16.75;100.00;99994.41;5063095;28;19960;-44
2022/05/08 07:37:43;;;;;;;;;;;;;;;18.18;100.00;99988.97;5068032;28;19931;-44
2022/05/08 07:40:09;;;;;;;;;;;;;;;16.73;100.00;99997.06;5049183;28;20270;-47
2022/05/08 07:42:34;;;;;;;;;;;;;;;18.14;100.00;99992.66;5066606;28;19927;-44
2022/05/08 07:44:59;;;;;;;;;;;;;;;18.26;100.00;99992.06;5063829;28;19924;-50
2022/05/08 07:47:25;;;;;;;;;;;;;;;17.97;100.00;99999.50;5064503;28;19935;-45
2022/05/08 07:49:50;;;;;;;;;;;;;;;18.21;100.00;99996.66;5063779;28;19927;-44
2022/05/08 07:52:15;;;;;;;;;;;;;;;18.46;100.00;99992.88;5063667;28;19921;-45
2022/05/08 07:54:40;;;;;;;;;;;;;;;17.49;100.00;100013.81;5066143;28;19955;-45
2022/05/08 07:57:06;;;;;;;;;;;;;;;17.31;100.00;100009.38;5063762;28;19956;-46
2022/05/08 07:59:31;;;;;;;;;;;;;;;18.35;100.00;99999.44;5063861;28;19916;-46
2022/05/08 08:01:56;;;;;;;;;;;;;;;17.17;100.00;100017.78;5061196;28;19920;-44
2022/05/08 08:04:21;;;;;;;;;;;;;;;18.31;100.00;100003.09;5063196;28;19981;-44
2022/05/08 08:06:47;;;;;;;;;;;;;;;17.75;100.00;100003.97;5067941;28;20435;-45
2022/05/08 08:09:12;;;;;;;;;;;;;;;17.83;100.00;100014.91;5063241;28;20314;-45
2022/05/08 08:11:38;;;;;;;;;;;;;;;18.64;100.00;100012.84;5064110;28;20320;-46
2022/05/08 08:14:04;;;;;;;;;;;;;;;18.48;100.00;100020.56;5064766;28;20390;-46
2022/05/08 08:16:29;;;;;;;;;;;;;;;18.14;100.00;100027.38;5063871;28;19920;-45
2022/05/08 08:18:56;;;;;;;;;;;;;;;17.50;100.00;100040.69;5064643;28;20027;-45
2022/05/08 08:21:22;;;;;;;;;;;;;;;16.13;100.00;100043.66;5063656;28;20252;-45
2022/05/08 08:23:47;;;;;;;;;;;;;;;17.50;100.00;100028.50;5064362;28;20387;-44
2022/05/08 08:26:12;;;;;;;;;;;;;;;16.30;100.00;100037.81;5063981;28;19924;-44
2022/05/08 08:28:37;;;;;;;;;;;;;;;16.73;100.00;100036.09;5064817;28;19923;-45
2022/05/08 08:31:05;;;;;;;;;;;;;;;17.97;100.00;100030.78;5064517;28;20555;-44
2022/05/08 08:33:30;;;;;;;;;;;;;;;16.41;100.00;100042.59;5064786;28;20017;-45
2022/05/08 08:35:56;;;;;;;;;;;;;;;16.81;100.00;100041.00;5062688;28;20031;-45
2022/05/08 08:38:21;;;;;;;;;;;;;;;17.54;100.00;100040.50;5064680;28;20003;-44
2022/05/08 08:40:48;;;;;;;;;;;;;;;18.10;100.00;100045.84;5064597;28;19995;-45
2022/05/08 08:43:15;;;;;;;;;;;;;;;19.39;100.00;100040.41;5065757;28;19924;-45
2022/05/08 08:48:27;;;;;;;;;;;;;;;17.56;100.00;100054.31;5068583;28;19923;-45
2022/05/08 08:50:52;;;;;;;;;;;;;;;18.52;100.00;100042.09;5060656;28;20462;-45
2022/05/08 08:53:18;;;;;;;;;;;;;;;18.76;100.00;100051.38;5060487;28;20019;-46
2022/05/08 08:55:43;;;;;;;;;;;;;;;19.96;100.00;100039.22;5058481;28;20590;-45
2022/05/08 08:58:08;;;;;;;;;;;;;;;18.80;100.00;100047.72;5060671;28;19924;-46
2022/05/08 09:00:33;;;;;;;;;;;;;;;18.96;100.00;100041.75;5064527;28;19920;-45
2022/05/08 09:02:58;;;;;;;;;;;;;;;20.15;94.36;100041.66;5063485;28;19994;-46
2022/05/08 09:05:26;;;;;;;;;;;;;;;18.21;98.97;100054.00;5063293;28;19954;-46
2022/05/08 09:07:55;;;;;;;;;;;;;;;18.44;97.66;100050.31;5061057;28;19920;-46
2022/05/08 09:10:25;;;;;;;;;;;;;;;19.02;98.17;100049.25;5062093;28;20473;-44
2022/05/08 09:12:53;;;;;;;;;;;;;;;19.83;93.38;100039.00;5063759;28;20929;-45
2022/05/08 09:15:19;;;;;;;;;;;;;;;20.05;90.87;100034.31;5060709;28;19916;-46
2022/05/08 09:17:45;;;;;;;;;;;;;;;18.93;97.97;100042.75;5061431;28;19966;-44
2022/05/08 09:20:29;;;;;;;;;;;;;;;19.33;98.32;100040.72;5062277;28;19928;-45
2022/05/08 09:22:57;;;;;;;;;;;;;;;18.63;97.62;100045.03;5062437;28;20716;-45
2022/05/08 09:25:23;;;;;;;;;;;;;;;18.09;99.57;100038.94;5062776;28;19990;-47
2022/05/08 09:27:59;;;;;;;;;;;;;;;19.30;100.00;100042.66;5062695;28;20531;-45
2022/05/08 09:30:26;;;;;;;;;;;;;;;19.35;100.00;100045.88;5061255;28;20765;-44
2022/05/08 09:32:51;;;;;;;;;;;;;;;17.87;100.00;100055.56;5061791;28;20621;-44
2022/05/08 09:35:16;;;;;;;;;;;;;;;19.94;91.84;100030.59;5064147;28;19942;-43
2022/05/08 09:37:51;;;;;;;;;;;;;;;19.50;94.90;100041.59;5060973;28;19924;-43
2022/05/08 09:40:18;;;;;;;;;;;;;;;20.27;93.73;100040.97;5062374;28;19927;-47
2022/05/08 09:42:43;;;;;;;;;;;;;;;21.02;90.98;100030.63;5060216;28;19924;-43
2022/05/08 09:45:09;;;;;;;;;;;;;;;20.94;86.38;100030.22;5062321;28;19924;-44
2022/05/08 09:47:42;;;;;;;;;;;;;;;20.95;87.78;100024.91;5062461;28;19923;-45
2022/05/08 09:50:07;;;;;;;;;;;;;;;20.03;90.87;100028.31;5061772;28;19974;-43
2022/05/08 09:52:33;;;;;;;;;;;;;;;20.45;90.59;100026.84;5061661;28;19925;-45
2022/05/08 09:55:00;;;;;;;;;;;;;;;21.49;90.66;100032.22;5063934;28;19917;-44
2022/05/08 09:57:26;;;;;;;;;;;;;;;21.26;88.98;100029.16;5063125;28;19927;-46
2022/05/08 09:59:51;;;;;;;;;;;;;;;20.00;89.96;100031.09;5061359;28;19920;-45
2022/05/08 10:02:16;;;;;;;;;;;;;;;21.72;82.52;100021.16;5060211;28;19959;-48
2022/05/08 10:04:41;;;;;;;;;;;;;;;20.89;87.75;100027.88;5063141;28;19968;-45
2022/05/08 10:07:07;;;;;;;;;;;;;;;20.35;83.41;100025.69;5063405;28;20504;-46
2022/05/08 10:15:19;;;;;;;;;;;;;;;22.49;84.23;100021.56;5060244;28;20381;-44
2022/05/08 10:17:44;;;;;;;;;;;;;;;20.44;87.27;100040.88;5061500;28;19924;-46
2022/05/08 10:20:10;;;;;;;;;;;;;;;20.08;90.65;100032.47;5060073;28;19920;-44
2022/05/08 10:22:45;;;;;;;;;;;;;;;21.89;85.71;100027.13;5062042;28;20037;-44
2022/05/08 10:25:13;;;;;;;;;;;;;;;22.45;79.40;100025.31;5061159;28;19929;-43
2022/05/08 10:27:38;;;;;;;;;;;;;;;22.98;68.99;100018.28;5060295;28;20284;-44
2022/05/08 10:30:03;;;;;;;;;;;;;;;23.22;75.11;100025.50;5058975;28;19921;-46
2022/05/08 10:32:30;;;;;;;;;;;;;;;21.82;73.53;100034.53;5045059;28;19924;-44
2022/05/08 10:35:11;;;;;;;;;;;;;;;21.85;80.00;100026.50;5062314;28;20488;-45
2022/05/08 10:37:37;;;;;;;;;;;;;;;23.14;82.54;100022.56;5064012;28;19917;-47
2022/05/08 10:40:02;;;;;;;;;;;;;;;23.51;78.63;100014.75;5061929;28;20684;-47
2022/05/08 10:42:27;;;;;;;;;;;;;;;24.61;72.71;100006.88;5062828;28;20493;-44
2022/05/08 10:44:53;;;;;;;;;;;;;;;23.50;72.51;100018.34;5062207;28;19924;-44
2022/05/08 10:47:36;;;;;;;;;;;;;;;23.21;64.75;100015.94;5061914;28;20296;-44
2022/05/08 10:50:05;;;;;;;;;;;;;;;20.91;71.27;100027.78;5062971;28;19930;-44
2022/05/08 10:52:30;;;;;;;;;;;;;;;21.78;69.49;100019.94;5064669;28;19931;-47
2022/05/08 10:55:07;;;;;;;;;;;;;;;23.09;78.02;100006.25;5060034;28;19921;-43
2022/05/08 10:57:33;;;;;;;;;;;;;;;23.26;72.68;100002.47;5059657;28;19935;-43
2022/05/08 11:00:02;;;;;;;;;;;;;;;24.03;60.84;100005.00;5062325;28;19916;-45
2022/05/08 11:02:43;;;;;;;;;;;;;;;22.67;65.64;100011.66;5063711;28;19942;-45
2022/05/08 11:05:09;;;;;;;;;;;;;;;23.13;72.21;99999.88;5065405;28;19924;-45
2022/05/08 11:07:35;;;;;;;;;;;;;;;24.03;62.77;100000.56;5066206;28;19927;-48
2022/05/08 11:10:00;;;;;;;;;;;;;;;22.84;62.30;100002.63;5067676;28;20438;-45
2022/05/08 11:12:25;;;;;;;;;;;;;;;24.60;59.54;99996.44;5063826;28;19927;-45
2022/05/08 11:14:51;;;;;;;;;;;;;;;25.83;58.76;100006.31;5057564;28;19921;-44
2022/05/08 11:17:17;;;;;;;;;;;;;;;25.30;62.62;100003.47;5062390;28;19916;-44
2022/05/08 11:19:51;;;;;;;;;;;;;;;24.99;62.32;100002.31;5063899;28;20054;-43
2022/05/08 11:22:17;;;;;;;;;;;;;;;23.59;63.40;100007.19;5063898;28;19920;-43
2022/05/08 11:24:45;;;;;;;;;;;;;;;23.41;64.68;100016.34;5068536;28;19931;-45
2022/05/08 11:27:11;;;;;;;;;;;;;;;24.06;55.64;100010.88;5065483;28;19975;-46
2022/05/08 11:29:36;;;;;;;;;;;;;;;22.68;71.60;100015.09;5065814;28;19921;-44
2022/05/08 11:38:02;;;;;;;;;;;;;;;26.47;55.88;99994.16;5065351;28;19949;-46
2022/05/08 11:40:27;;;;;;;;;;;;;;;25.36;54.24;99996.84;5064792;28;19926;-44
2022/05/08 11:42:52;;;;;;;;;;;;;;;24.07;56.52;100007.31;5064294;28;19920;-45
2022/05/08 11:45:17;;;;;;;;;;;;;;;24.58;61.71;99999.19;5065878;28;19979;-44
2022/05/08 11:47:49;;;;;;;;;;;;;;;24.92;65.68;99988.75;5066044;28;19920;-43
2022/05/08 11:50:14;;;;;;;;;;;;;;;24.27;57.17;99986.56;5063388;28;20663;-47
2022/05/08 11:52:40;;;;;;;;;;;;;;;25.81;62.69;99989.75;5065133;28;19920;-45
2022/05/08 11:55:06;;;;;;;;;;;;;;;25.83;60.69;99982.56;5049971;28;19926;-47
2022/05/08 11:57:40;;;;;;;;;;;;;;;25.63;51.08;99988.56;5064049;28;20024;-45
2022/05/08 12:00:10;;;;;;;;;;;;;;;24.81;56.01;99986.09;5078397;28;20487;-47
2022/05/08 12:02:39;;;;;;;;;;;;;;;25.53;59.10;99990.28;5062673;28;19931;-48
2022/05/08 12:05:05;;;;;;;;;;;;;;;25.34;55.49;99982.94;5065193;28;19924;-48
2022/05/08 12:07:39;;;;;;;;;;;;;;;24.47;53.57;99983.34;5064499;28;19973;-44
2022/05/08 12:10:05;;;;;;;;;;;;;;;26.32;53.98;99969.00;5064455;28;19970;-46
2022/05/08 12:12:35;;;;;;;;;;;;;;;25.15;50.73;99968.53;5062856;28;20023;-44
2022/05/08 12:15:02;;;;;;;;;;;;;;;25.97;47.46;99965.63;5064512;28;19920;-45
2022/05/08 12:17:27;;;;;;;;;;;;;;;25.86;45.82;99969.13;5064252;28;20608;-45
2022/05/08 12:19:53;;;;;;;;;;;;;;;24.63;48.05;99967.22;5065181;28;19924;-47
2022/05/08 12:22:19;;;;;;;;;;;;;;;26.66;48.77;99957.34;5063694;28;20381;-45
2022/05/08 12:24:45;;;;;;;;;;;;;;;26.80;45.77;99960.63;5064592;28;19920;-46
2022/05/08 12:27:10;;;;;;;;;;;;;;;25.13;56.11;99964.34;5066494;28;19927;-44
2022/05/08 12:29:36;;;;;;;;;;;;;;;25.06;44.99;99958.69;5061863;28;19920;-48
2022/05/08 12:32:01;;;;;;;;;;;;;;;25.44;51.63;99962.81;5062673;28;19969;-47
2022/05/08 12:34:27;;;;;;;;;;;;;;;24.82;49.75;99961.44;5063493;28;19924;-48
2022/05/08 12:36:52;;;;;;;;;;;;;;;23.89;50.38;99958.63;5064295;28;20160;-49
2022/05/08 12:39:19;;;;;;;;;;;;;;;25.03;49.53;99957.16;5062605;28;20012;-47
2022/05/08 12:41:44;;;;;;;;;;;;;;;25.28;46.68;99952.63;5064407;28;19920;-46
2022/05/08 12:44:10;;;;;;;;;;;;;;;26.11;42.21;99946.03;5060733;28;19920;-46
2022/05/08 12:46:35;;;;;;;;;;;;;;;26.65;42.51;99945.09;5065214;28;19985;-46
2022/05/08 12:49:03;;;;;;;;;;;;;;;26.07;40.38;99942.81;5065065;28;19923;-46
2022/05/08 12:51:33;;;;;;;;;;;;;;;25.45;41.12;99946.88;5062980;28;19955;-48
2022/05/08 12:53:59;;;;;;;;;;;;;;;27.47;45.11;99943.44;5064145;28;19942;-46
2022/05/08 12:56:25;;;;;;;;;;;;;;;25.09;48.40;99949.72;5062767;28;19921;-45
2022/05/08 13:01:34;;;;;;;;;;;;;;;26.83;45.77;99939.22;5059591;28;19947;-48